Time;durP1;ratioP1;P1;durP2;ratioP2;P2;SDS_P1;SDS_P2;PMS_P1;PMS_P2;Temp;Humidity;BMP_temperature;BMP_pressure;BME280_temperature;BME280_humidity;BME280_pressure;Samples;Min_cycle;Max_cycle;Signal;HPM_P1;HPM_P2
2023/08/09 04:00:51;;;;;;;1.30;1.20;;;14.30;97.30;;;;;;5860941;23;20508;-88
2023/08/09 04:03:17;;;;;;;1.10;1.00;;;14.30;97.30;;;;;;4926252;29;20443;-88
2023/08/09 04:05:43;;;;;;;1.33;1.23;;;14.30;97.30;;;;;;4932128;29;20424;-89
2023/08/09 04:08:08;;;;;;;1.20;1.10;;;14.30;97.30;;;;;;4931687;29;20315;-88
2023/08/09 04:10:35;;;;;;;4.03;1.67;;;14.30;97.30;;;;;;4929855;29;20308;-89
2023/08/09 04:13:00;;;;;;;1.13;0.97;;;14.30;97.30;;;;;;4941803;23;20998;-74
2023/08/09 04:15:26;;;;;;;2.30;2.10;;;14.30;97.30;;;;;;4948337;28;20517;-73
2023/08/09 04:17:51;;;;;;;1.30;1.20;;;14.30;97.30;;;;;;4943157;28;20412;-72
2023/08/09 04:20:19;;;;;;;1.30;1.20;;;14.30;97.30;;;;;;4944029;29;20242;-73
2023/08/09 04:22:45;;;;;;;0.90;0.80;;;14.20;97.30;;;;;;4936128;29;20184;-73
2023/08/09 04:25:10;;;;;;;3.13;2.47;;;14.20;97.30;;;;;;4939875;28;21016;-74
2023/08/09 04:27:39;;;;;;;1.73;1.57;;;14.20;97.30;;;;;;4934096;29;20494;-73
2023/08/09 04:30:09;;;;;;;4.60;1.90;;;14.20;97.30;;;;;;4939884;28;20183;-74
2023/08/09 04:32:39;;;;;;;1.20;1.10;;;14.20;97.30;;;;;;4939986;28;21059;-74
2023/08/09 04:35:05;;;;;;;1.20;1.10;;;14.20;97.30;;;;;;4939875;28;20837;-73
2023/08/09 04:37:31;;;;;;;3.37;2.27;;;14.20;97.30;;;;;;4939488;29;20431;-74
2023/08/09 04:39:57;;;;;;;1.23;1.20;;;14.20;97.30;;;;;;4941639;28;20970;-74
2023/08/09 04:42:22;;;;;;;1.57;1.47;;;14.20;97.30;;;;;;4940108;28;20498;-74
2023/08/09 04:44:48;;;;;;;1.93;1.20;;;14.10;97.30;;;;;;4935763;28;20191;-74
2023/08/09 04:47:14;;;;;;;1.40;1.37;;;14.10;97.30;;;;;;4939942;29;20191;-75
2023/08/09 04:49:40;;;;;;;1.20;1.03;;;14.10;97.30;;;;;;4937608;29;20474;-75
2023/08/09 04:52:06;;;;;;;1.53;1.53;;;14.10;97.30;;;;;;4939026;28;20208;-75
2023/08/09 04:54:32;;;;;;;1.20;1.10;;;14.10;97.30;;;;;;4938938;28;20428;-74
2023/08/09 04:56:57;;;;;;;1.00;0.90;;;14.10;97.30;;;;;;4936185;28;20258;-75
2023/08/09 04:59:23;;;;;;;1.20;1.10;;;14.10;97.30;;;;;;4939085;28;20223;-75
2023/08/09 05:01:49;;;;;;;3.23;2.43;;;14.10;97.30;;;;;;4940498;29;20200;-75
2023/08/09 05:04:14;;;;;;;1.10;1.00;;;14.10;97.30;;;;;;4938817;29;20486;-75
2023/08/09 05:06:40;;;;;;;1.23;1.13;;;14.00;97.30;;;;;;4939339;29;20180;-75
2023/08/09 05:09:06;;;;;;;3.07;2.33;;;14.00;97.30;;;;;;4937978;28;20184;-75
2023/08/09 05:11:31;;;;;;;1.20;1.10;;;14.00;97.30;;;;;;4937326;28;20690;-75
2023/08/09 05:13:57;;;;;;;1.57;1.47;;;14.00;97.30;;;;;;4938597;29;20241;-75
2023/08/09 05:16:25;;;;;;;1.13;1.03;;;14.00;97.30;;;;;;4938118;28;20613;-75
2023/08/09 05:18:51;;;;;;;1.33;1.27;;;14.00;97.30;;;;;;4938844;29;20207;-75
2023/08/09 05:21:18;;;;;;;1.00;0.90;;;14.00;97.30;;;;;;4941112;29;20880;-75
2023/08/09 05:23:44;;;;;;;2.40;1.40;;;14.00;97.30;;;;;;4944426;29;20462;-75
2023/08/09 05:26:09;;;;;;;19.33;3.10;;;14.00;97.30;;;;;;4944742;28;20219;-75
2023/08/09 05:28:35;;;;;;;1.40;1.30;;;14.00;97.30;;;;;;4941819;28;20259;-75
2023/08/09 05:31:00;;;;;;;1.57;1.47;;;14.00;97.30;;;;;;4944771;28;20638;-76
2023/08/09 05:33:26;;;;;;;1.20;1.10;;;14.00;97.30;;;;;;4944580;28;20615;-75
2023/08/09 05:35:51;;;;;;;1.30;1.20;;;14.10;97.30;;;;;;4942432;29;20246;-75
2023/08/09 05:38:17;;;;;;;1.57;1.17;;;14.00;97.30;;;;;;4941930;29;20654;-75
2023/08/09 05:40:42;;;;;;;1.00;0.90;;;14.00;97.30;;;;;;4942353;29;20207;-76
2023/08/09 05:43:08;;;;;;;1.63;1.53;;;14.10;97.30;;;;;;4937472;29;20204;-84
2023/08/09 05:45:34;;;;;;;2.10;1.80;;;14.10;97.30;;;;;;4935345;29;20727;-84
2023/08/09 05:47:59;;;;;;;3.40;1.87;;;14.10;97.30;;;;;;4935818;29;20180;-85
2023/08/09 05:50:25;;;;;;;5.57;1.70;;;14.10;97.30;;;;;;4934303;29;20274;-84
2023/08/09 05:52:50;;;;;;;1.63;1.30;;;14.10;97.30;;;;;;4935662;29;20660;-82
2023/08/09 05:55:16;;;;;;;1.80;1.47;;;14.10;97.30;;;;;;4935496;29;20498;-82
2023/08/09 05:57:41;;;;;;;0.93;0.87;;;14.10;97.30;;;;;;4934211;29;20212;-81
2023/08/09 06:00:15;;;;;;;0.90;0.80;;;14.10;97.30;;;;;;4934736;29;20219;-82
2023/08/09 06:02:43;;;;;;;1.63;1.53;;;14.20;97.30;;;;;;4933312;29;20180;-82
2023/08/09 06:05:09;;;;;;;1.10;1.00;;;14.20;97.30;;;;;;4934494;29;20995;-80
2023/08/09 06:07:34;;;;;;;1.00;0.90;;;14.30;97.30;;;;;;4935078;29;20420;-80
2023/08/09 06:10:00;;;;;;;1.50;1.40;;;14.30;97.30;;;;;;4933606;29;20968;-80
2023/08/09 06:12:25;;;;;;;1.20;1.10;;;14.30;97.30;;;;;;4934709;29;20231;-82
2023/08/09 06:14:51;;;;;;;1.17;1.07;;;14.30;97.30;;;;;;4934301;29;20236;-79
2023/08/09 06:17:17;;;;;;;1.00;0.90;;;14.30;97.30;;;;;;4933266;29;20196;-81
2023/08/09 06:19:42;;;;;;;1.53;1.40;;;14.20;97.30;;;;;;4932717;29;20218;-78
2023/08/09 06:22:08;;;;;;;1.00;1.00;;;14.20;97.30;;;;;;4933666;29;20210;-77
2023/08/09 06:24:33;;;;;;;1.30;1.20;;;14.20;97.30;;;;;;4933725;29;20441;-76
2023/08/09 06:26:59;;;;;;;1.53;1.43;;;14.20;97.30;;;;;;4932445;29;20196;-76
2023/08/09 06:29:24;;;;;;;1.00;0.90;;;14.20;97.30;;;;;;4933786;29;20188;-78
2023/08/09 06:31:50;;;;;;;1.00;0.90;;;14.20;97.30;;;;;;4933209;29;20251;-78
2023/08/09 06:34:15;;;;;;;1.20;1.10;;;14.20;97.30;;;;;;4933640;29;20190;-77
2023/08/09 06:36:41;;;;;;;0.90;0.80;;;14.20;97.30;;;;;;4933448;29;20187;-75
2023/08/09 06:39:07;;;;;;;1.20;1.10;;;14.20;97.30;;;;;;4933143;29;20298;-77
2023/08/09 06:41:32;;;;;;;1.00;0.90;;;14.30;97.30;;;;;;4931851;29;20196;-75
2023/08/09 06:43:58;;;;;;;0.93;0.83;;;14.20;97.30;;;;;;4933261;29;20263;-76
2023/08/09 06:46:23;;;;;;;1.10;1.00;;;14.20;97.30;;;;;;4932987;29;20666;-75
2023/08/09 06:48:49;;;;;;;1.00;0.90;;;14.20;97.30;;;;;;4933166;29;20300;-73
2023/08/09 06:51:15;;;;;;;1.00;0.90;;;14.20;97.30;;;;;;4932629;29;20716;-74
2023/08/09 06:53:40;;;;;;;1.03;0.80;;;14.30;97.30;;;;;;4931584;29;20191;-74
2023/08/09 06:56:06;;;;;;;1.03;1.00;;;14.30;97.30;;;;;;4932542;29;20286;-74
2023/08/09 06:58:31;;;;;;;1.17;1.07;;;14.40;97.30;;;;;;4932617;29;20222;-75
2023/08/09 07:00:57;;;;;;;4.50;1.10;;;14.40;97.30;;;;;;4932315;29;20228;-73
2023/08/09 07:03:22;;;;;;;1.03;0.93;;;14.40;97.30;;;;;;4929982;29;20188;-73
2023/08/09 07:05:48;;;;;;;1.17;1.07;;;14.40;97.30;;;;;;4932762;29;20191;-73
2023/08/09 07:08:13;;;;;;;1.10;1.00;;;14.50;97.30;;;;;;4930193;29;20195;-75
2023/08/09 07:10:39;;;;;;;2.30;1.00;;;14.50;97.30;;;;;;4930169;29;20222;-71
2023/08/09 07:13:05;;;;;;;1.30;1.20;;;14.50;97.30;;;;;;4930926;29;20731;-74
2023/08/09 07:15:31;;;;;;;1.00;0.90;;;14.50;97.30;;;;;;4932471;29;20263;-73
2023/08/09 07:17:56;;;;;;;1.70;1.60;;;14.50;97.30;;;;;;4932235;29;20507;-72
2023/08/09 07:20:22;;;;;;;4.53;1.10;;;14.60;97.30;;;;;;4932191;29;20207;-73
2023/08/09 07:22:47;;;;;;;5.27;1.30;;;14.60;97.30;;;;;;4932379;29;20190;-72
2023/08/09 07:25:14;;;;;;;1.20;1.10;;;14.60;97.30;;;;;;4930917;29;20280;-73
2023/08/09 07:27:44;;;;;;;1.53;1.23;;;14.70;97.30;;;;;;4932181;29;20270;-73
2023/08/09 07:30:11;;;;;;;1.20;1.10;;;14.80;97.30;;;;;;4930783;29;20450;-75
2023/08/09 07:32:38;;;;;;;1.00;0.90;;;14.80;97.30;;;;;;4932108;29;20439;-73
2023/08/09 07:35:05;;;;;;;0.90;0.80;;;14.80;97.30;;;;;;4932249;29;21004;-73
2023/08/09 07:37:30;;;;;;;1.60;1.50;;;14.80;97.30;;;;;;4931831;29;20424;-73
2023/08/09 07:39:56;;;;;;;4.00;1.10;;;14.80;97.30;;;;;;4930665;29;20526;-73
2023/08/09 07:42:22;;;;;;;0.90;0.80;;;14.90;97.30;;;;;;4931569;29;20574;-71
2023/08/09 07:44:47;;;;;;;1.10;1.00;;;14.90;97.30;;;;;;4931825;29;20184;-72
2023/08/09 07:47:13;;;;;;;0.90;0.80;;;15.00;97.30;;;;;;4931816;29;20276;-72
2023/08/09 07:49:38;;;;;;;2.40;1.33;;;15.00;97.30;;;;;;4931206;29;20187;-72
2023/08/09 07:52:04;;;;;;;0.90;0.80;;;15.10;97.30;;;;;;4930632;29;20206;-72
2023/08/09 07:54:29;;;;;;;1.17;1.07;;;15.10;97.30;;;;;;4932541;29;20207;-72
2023/08/09 07:56:55;;;;;;;0.97;0.87;;;15.20;97.30;;;;;;4931064;29;20203;-71
2023/08/09 07:59:21;;;;;;;0.90;0.80;;;15.20;97.30;;;;;;4930773;29;20695;-71
2023/08/09 08:01:46;;;;;;;0.90;0.80;;;15.20;97.30;;;;;;4931628;28;20215;-71
2023/08/09 08:04:12;;;;;;;1.00;0.90;;;15.20;97.30;;;;;;4930318;29;20186;-72
2023/08/09 08:06:38;;;;;;;1.17;1.00;;;15.30;97.30;;;;;;4930329;29;20187;-71
2023/08/09 08:09:04;;;;;;;1.27;1.17;;;15.30;97.30;;;;;;4930466;29;20186;-71
2023/08/09 08:11:30;;;;;;;1.10;1.00;;;15.40;97.30;;;;;;4931654;29;20443;-71
2023/08/09 08:13:57;;;;;;;5.10;1.10;;;15.50;97.30;;;;;;4930878;29;20497;-71
2023/08/09 08:16:23;;;;;;;1.00;0.90;;;15.50;97.30;;;;;;4930132;28;20249;-72
2023/08/09 08:18:49;;;;;;;1.20;1.10;;;15.60;97.30;;;;;;4930344;28;20995;-72
2023/08/09 08:21:14;;;;;;;1.83;1.30;;;15.60;97.30;;;;;;4930126;29;20826;-71
2023/08/09 08:23:40;;;;;;;1.20;1.10;;;15.60;97.30;;;;;;4929527;29;20283;-71
2023/08/09 08:26:05;;;;;;;1.00;0.90;;;15.70;97.30;;;;;;4930147;29;20180;-71
2023/08/09 08:28:31;;;;;;;0.83;0.77;;;15.70;97.30;;;;;;4928438;29;20179;-72
2023/08/09 08:30:56;;;;;;;0.90;0.80;;;15.70;97.30;;;;;;4929915;29;20210;-71
2023/08/09 08:33:23;;;;;;;1.00;0.90;;;15.80;97.30;;;;;;4930643;29;20259;-71
2023/08/09 08:35:49;;;;;;;1.60;1.33;;;15.90;97.30;;;;;;4930142;29;20261;-72
2023/08/09 08:38:15;;;;;;;1.00;0.90;;;16.00;97.30;;;;;;4931113;29;20910;-71
2023/08/09 08:40:43;;;;;;;0.90;0.80;;;16.00;97.30;;;;;;4930064;29;20479;-70
2023/08/09 08:43:08;;;;;;;1.23;1.20;;;16.00;97.30;;;;;;4930988;29;20420;-71
2023/08/09 08:45:38;;;;;;;0.90;0.80;;;16.00;97.30;;;;;;4931406;29;20419;-71
2023/08/09 08:48:07;;;;;;;0.90;0.80;;;16.00;97.30;;;;;;4928416;29;20183;-71
2023/08/09 08:50:33;;;;;;;1.47;1.37;;;16.00;97.30;;;;;;4929783;29;20929;-71
2023/08/09 08:52:59;;;;;;;0.90;0.80;;;16.10;97.30;;;;;;4929765;29;20466;-72
2023/08/09 08:55:25;;;;;;;1.30;0.93;;;16.20;97.30;;;;;;4933671;29;20439;-70
2023/08/09 08:57:53;;;;;;;1.40;1.03;;;16.30;97.30;;;;;;4935171;29;20931;-70
2023/08/09 09:00:20;;;;;;;2.93;1.57;;;16.30;97.30;;;;;;4934909;29;20696;-70
2023/08/09 09:02:46;;;;;;;1.37;1.27;;;16.40;97.30;;;;;;4933363;29;20430;-71
2023/08/09 09:05:13;;;;;;;1.00;0.90;;;16.40;96.50;;;;;;4934791;29;20424;-70
2023/08/09 09:07:42;;;;;;;1.10;1.00;;;16.50;97.30;;;;;;4934781;29;20419;-70
2023/08/09 09:10:12;;;;;;;1.13;1.03;;;16.50;97.00;;;;;;4933673;29;20435;-71
2023/08/09 09:12:39;;;;;;;1.17;1.10;;;16.60;96.50;;;;;;4934793;29;20492;-71
2023/08/09 09:15:06;;;;;;;1.10;1.00;;;16.60;96.70;;;;;;4933457;29;20487;-71
2023/08/09 09:17:39;;;;;;;1.40;1.30;;;16.50;96.30;;;;;;4934366;29;20819;-72
2023/08/09 09:20:10;;;;;;;1.10;1.00;;;16.50;96.40;;;;;;4932960;28;20467;-71
2023/08/09 09:22:36;;;;;;;1.00;0.90;;;16.50;95.30;;;;;;4934392;29;20431;-70
2023/08/09 09:25:09;;;;;;;0.90;0.80;;;16.60;96.10;;;;;;4934695;29;20420;-71
2023/08/09 09:27:34;;;;;;;0.97;0.87;;;16.60;96.40;;;;;;4934278;29;20672;-69
2023/08/09 09:30:04;;;;;;;0.90;0.80;;;16.60;95.50;;;;;;4933350;29;20503;-71
2023/08/09 09:32:33;;;;;;;0.90;0.80;;;16.70;95.00;;;;;;4932965;28;20184;-70
2023/08/09 09:34:59;;;;;;;4.00;1.10;;;16.70;93.40;;;;;;4932712;29;20486;-70
2023/08/09 09:37:26;;;;;;;0.90;0.80;;;16.80;94.50;;;;;;4933892;29;21828;-70
2023/08/09 09:39:52;;;;;;;1.57;1.10;;;16.90;94.10;;;;;;4930990;29;20203;-70
2023/08/09 09:42:28;;;;;;;1.00;0.90;;;17.00;94.50;;;;;;4933546;29;20971;-70
2023/08/09 09:45:02;;;;;;;1.20;1.10;;;17.10;93.50;;;;;;4934227;29;20427;-70
2023/08/09 09:47:28;;;;;;;1.10;1.00;;;17.10;90.90;;;;;;4934046;29;20450;-70
2023/08/09 09:49:54;;;;;;;1.00;0.90;;;17.00;90.50;;;;;;4932668;29;20960;-70
2023/08/09 09:52:20;;;;;;;1.00;0.90;;;17.00;91.40;;;;;;4932507;29;20204;-70
2023/08/09 09:54:46;;;;;;;1.27;1.20;;;17.10;92.40;;;;;;4933675;28;20191;-69
2023/08/09 09:57:12;;;;;;;1.00;0.90;;;17.20;93.70;;;;;;4933861;29;20428;-70
2023/08/09 09:59:38;;;;;;;1.13;1.00;;;17.40;94.10;;;;;;4933513;29;20467;-69
2023/08/09 10:02:05;;;;;;;0.90;0.80;;;17.40;91.50;;;;;;4933992;29;20195;-69
2023/08/09 10:04:31;;;;;;;1.00;0.90;;;17.40;91.30;;;;;;4933486;29;20424;-68
2023/08/09 10:06:57;;;;;;;1.83;1.10;;;17.40;92.10;;;;;;4933280;29;20431;-69
2023/08/09 10:09:24;;;;;;;1.00;0.90;;;17.40;92.60;;;;;;4933336;29;20427;-69
2023/08/09 10:11:51;;;;;;;1.77;1.67;;;17.50;91.00;;;;;;4933681;29;20200;-69
2023/08/09 10:14:19;;;;;;;0.90;0.80;;;17.70;93.00;;;;;;4946571;23;20975;-67
2023/08/09 10:16:47;;;;;;;1.33;1.23;;;17.80;91.30;;;;;;4933397;29;20423;-68
2023/08/09 10:19:18;;;;;;;1.27;1.17;;;17.90;91.00;;;;;;4933096;29;20951;-67
2023/08/09 10:21:44;;;;;;;1.57;1.53;;;18.00;89.70;;;;;;4933201;29;20458;-67
2023/08/09 10:24:12;;;;;;;2.70;1.90;;;18.10;88.30;;;;;;4933092;29;20427;-68
2023/08/09 10:26:39;;;;;;;1.07;1.00;;;18.10;88.30;;;;;;4933448;29;20263;-67
2023/08/09 10:29:10;;;;;;;0.90;0.80;;;18.20;89.00;;;;;;4932006;29;20439;-68
2023/08/09 10:31:59;;;;;;;0.90;0.80;;;18.30;88.20;;;;;;4924596;29;20494;-67
2023/08/09 10:34:36;;;;;;;11.10;1.37;;;18.40;88.70;;;;;;4931943;29;21094;-66
2023/08/09 10:37:06;;;;;;;0.90;0.80;;;18.30;88.90;;;;;;4932210;29;20428;-67
2023/08/09 10:39:33;;;;;;;1.00;0.90;;;18.20;88.50;;;;;;4932455;29;20622;-68
2023/08/09 10:42:01;;;;;;;0.90;0.80;;;18.00;87.30;;;;;;4933170;29;20939;-66
2023/08/09 10:44:34;;;;;;;1.20;1.10;;;18.00;86.60;;;;;;4933138;29;20423;-67
2023/08/09 10:47:14;;;;;;;2.33;2.17;;;18.10;87.60;;;;;;4931750;29;20459;-67
2023/08/09 10:49:48;;;;;;;1.10;1.00;;;18.20;88.50;;;;;;4931708;29;20441;-68
2023/08/09 10:52:16;;;;;;;0.90;0.80;;;18.30;88.70;;;;;;4930767;29;20840;-68
2023/08/09 10:54:42;;;;;;;1.10;1.00;;;18.50;88.40;;;;;;4931645;29;20466;-68
2023/08/09 10:57:09;;;;;;;1.00;0.90;;;18.60;88.90;;;;;;4930061;29;20439;-67
2023/08/09 10:59:37;;;;;;;0.90;0.80;;;18.70;87.30;;;;;;4932148;29;20955;-67
2023/08/09 11:02:03;;;;;;;1.10;1.00;;;18.80;87.80;;;;;;4932908;29;20943;-68
2023/08/09 11:04:29;;;;;;;0.87;0.77;;;18.90;87.50;;;;;;4932608;29;20420;-67
2023/08/09 11:06:54;;;;;;;1.00;0.90;;;19.00;86.70;;;;;;4933043;29;20785;-67
2023/08/09 11:09:23;;;;;;;0.70;0.67;;;19.10;86.00;;;;;;4931259;29;20184;-67
2023/08/09 11:11:50;;;;;;;1.07;0.97;;;19.10;84.90;;;;;;4932661;29;20223;-67
2023/08/09 11:14:17;;;;;;;1.50;1.40;;;19.20;86.70;;;;;;4930910;29;20480;-68
2023/08/09 11:16:44;;;;;;;0.90;0.80;;;19.30;85.00;;;;;;4932741;29;20431;-67
2023/08/09 11:19:13;;;;;;;2.53;1.10;;;19.40;85.20;;;;;;4931295;29;20468;-67
2023/08/09 11:21:54;;;;;;;1.57;0.80;;;19.30;81.50;;;;;;4923581;29;20999;-68
2023/08/09 11:24:26;;;;;;;1.00;0.90;;;19.20;82.00;;;;;;4931101;29;20547;-67
2023/08/09 11:26:55;;;;;;;0.90;0.80;;;19.20;82.80;;;;;;4932637;29;20794;-68
2023/08/09 11:29:22;;;;;;;1.37;1.00;;;19.30;81.80;;;;;;4930926;29;20423;-67
2023/08/09 11:31:56;;;;;;;4.80;1.07;;;19.40;82.80;;;;;;4932662;29;20494;-67
2023/08/09 11:34:23;;;;;;;1.10;1.00;;;19.50;83.00;;;;;;4932480;29;20898;-67
2023/08/09 11:36:51;;;;;;;0.77;0.73;;;19.60;83.30;;;;;;4932497;29;20435;-67
2023/08/09 11:39:17;;;;;;;0.90;0.80;;;19.70;84.60;;;;;;4931235;29;20471;-68
2023/08/09 11:41:50;;;;;;;0.90;0.80;;;19.70;83.60;;;;;;4932605;29;20439;-67
2023/08/09 11:44:21;;;;;;;0.77;0.73;;;19.60;82.50;;;;;;4932132;29;20416;-67
2023/08/09 11:46:47;;;;;;;0.90;0.80;;;19.50;82.30;;;;;;4932195;29;20506;-67
2023/08/09 11:49:12;;;;;;;0.70;0.70;;;19.50;82.20;;;;;;4930770;29;20543;-67
2023/08/09 11:51:38;;;;;;;0.97;0.97;;;19.60;85.20;;;;;;4930639;29;20295;-68
2023/08/09 11:54:08;;;;;;;2.63;0.90;;;19.70;84.90;;;;;;4930775;29;20216;-67
2023/08/09 11:56:35;;;;;;;2.70;1.57;;;19.80;83.50;;;;;;4931993;29;20214;-68
2023/08/09 11:59:02;;;;;;;0.83;0.77;;;19.80;82.80;;;;;;4930670;29;20827;-67
2023/08/09 12:01:35;;;;;;;0.80;0.70;;;19.90;82.60;;;;;;4931745;29;20459;-67
2023/08/09 12:04:07;;;;;;;0.90;0.80;;;20.10;85.30;;;;;;4931900;29;20883;-67
2023/08/09 12:06:42;;;;;;;3.43;1.20;;;20.40;83.60;;;;;;4931912;29;20430;-68
2023/08/09 12:09:30;;;;;;;0.90;0.80;;;20.60;82.50;;;;;;4929727;29;20493;-67
2023/08/09 12:12:03;;;;;;;0.90;0.80;;;20.70;81.40;;;;;;4924410;29;20997;-67
2023/08/09 12:14:29;;;;;;;0.80;0.73;;;20.90;83.20;;;;;;4928106;29;20554;-68
2023/08/09 12:16:54;;;;;;;0.80;0.70;;;21.00;82.20;;;;;;4930329;29;20443;-67
2023/08/09 12:19:20;;;;;;;0.90;0.80;;;21.20;82.20;;;;;;4929401;29;20212;-67
2023/08/09 12:21:46;;;;;;;0.90;0.80;;;21.30;81.30;;;;;;4930537;29;20270;-65
2023/08/09 12:24:13;;;;;;;1.20;1.10;;;21.30;80.60;;;;;;4931552;29;20527;-65
2023/08/09 12:26:39;;;;;;;0.90;0.80;;;21.20;81.70;;;;;;4932039;29;20406;-65
2023/08/09 12:29:05;;;;;;;5.43;1.00;;;21.10;81.60;;;;;;4931257;29;20431;-65
2023/08/09 12:31:31;;;;;;;0.90;0.80;;;21.10;81.40;;;;;;4931343;29;20630;-65
2023/08/09 12:33:56;;;;;;;0.90;0.80;;;21.00;82.00;;;;;;4930212;29;20621;-65
2023/08/09 12:36:22;;;;;;;2.30;0.90;;;21.10;82.80;;;;;;4929709;29;20183;-65
2023/08/09 12:38:48;;;;;;;0.90;0.80;;;21.20;82.50;;;;;;4930209;29;20204;-65
2023/08/09 12:41:14;;;;;;;0.90;0.80;;;21.40;83.30;;;;;;4931054;29;20676;-65
2023/08/09 12:43:39;;;;;;;0.90;0.80;;;21.70;82.00;;;;;;4931095;29;20735;-65
2023/08/09 12:46:05;;;;;;;0.90;0.80;;;21.70;80.50;;;;;;4927917;29;20203;-65
2023/08/09 12:48:30;;;;;;;0.90;0.80;;;21.70;79.40;;;;;;4928263;29;20210;-65
2023/08/09 12:50:56;;;;;;;0.90;0.80;;;21.70;79.60;;;;;;4929779;29;20210;-69
2023/08/09 12:53:22;;;;;;;0.83;0.77;;;21.70;77.50;;;;;;4927925;29;20184;-66
2023/08/09 12:55:48;;;;;;;0.90;0.80;;;21.60;78.60;;;;;;4931069;29;20176;-66
2023/08/09 12:58:13;;;;;;;0.90;0.80;;;21.50;78.30;;;;;;4929792;29;20996;-66
2023/08/09 13:00:39;;;;;;;0.70;0.70;;;21.60;79.10;;;;;;4930611;29;20602;-66
2023/08/09 13:03:06;;;;;;;1.10;1.00;;;21.50;78.40;;;;;;4928144;29;20407;-66
2023/08/09 13:05:32;;;;;;;0.90;0.80;;;21.40;78.30;;;;;;4920199;29;20188;-66
2023/08/09 13:07:57;;;;;;;2.60;1.10;;;21.20;80.00;;;;;;4929162;29;20412;-67
2023/08/09 13:10:23;;;;;;;0.90;0.80;;;21.20;81.00;;;;;;4929999;29;20239;-67
2023/08/09 13:12:48;;;;;;;1.00;0.90;;;21.40;81.00;;;;;;4930393;29;20560;-67
2023/08/09 13:15:14;;;;;;;0.90;0.80;;;21.60;81.60;;;;;;4927343;29;20318;-66
2023/08/09 13:17:40;;;;;;;0.90;0.80;;;21.90;82.60;;;;;;4925302;29;20217;-67
2023/08/09 13:20:08;;;;;;;1.83;1.37;;;22.20;81.10;;;;;;4928978;29;20216;-65
2023/08/09 13:22:34;;;;;;;0.90;0.80;;;22.40;78.20;;;;;;4928958;29;20663;-67
2023/08/09 13:24:59;;;;;;;2.00;1.13;;;22.40;77.60;;;;;;4929827;29;20408;-67
2023/08/09 13:27:25;;;;;;;1.47;1.00;;;22.50;78.20;;;;;;4929703;29;20558;-67
2023/08/09 13:29:51;;;;;;;0.83;0.80;;;22.50;78.70;;;;;;4917988;29;20215;-67
2023/08/09 13:32:16;;;;;;;1.37;1.27;;;22.50;78.60;;;;;;4917475;29;20706;-67
2023/08/09 13:34:42;;;;;;;0.90;0.80;;;22.60;78.70;;;;;;4910293;29;20192;-67
2023/08/09 13:37:07;;;;;;;1.63;0.90;;;22.80;78.10;;;;;;4921238;29;20581;-66
2023/08/09 13:39:33;;;;;;;0.90;0.80;;;22.90;77.00;;;;;;4913161;29;20756;-67
2023/08/09 13:41:58;;;;;;;0.80;0.70;;;23.00;77.90;;;;;;4927220;29;20200;-66
2023/08/09 13:44:24;;;;;;;0.90;0.80;;;22.90;74.80;;;;;;4923180;29;20228;-66
2023/08/09 13:46:50;;;;;;;1.03;0.90;;;22.70;76.40;;;;;;4928308;29;20290;-66
2023/08/09 13:49:15;;;;;;;0.90;0.80;;;22.50;77.70;;;;;;4921238;28;20189;-68
2023/08/09 13:51:41;;;;;;;0.93;0.83;;;22.50;78.40;;;;;;4916745;29;20200;-67
2023/08/09 13:54:08;;;;;;;0.77;0.73;;;22.50;77.50;;;;;;4916233;29;20188;-68
2023/08/09 13:56:34;;;;;;;0.70;0.70;;;22.50;78.60;;;;;;4923159;29;20184;-67
2023/08/09 13:58:59;;;;;;;0.77;0.70;;;22.40;75.30;;;;;;4913643;29;20468;-68
2023/08/09 14:01:25;;;;;;;0.90;0.80;;;22.30;76.30;;;;;;4915122;29;20662;-67
2023/08/09 14:03:50;;;;;;;0.87;0.77;;;22.30;77.30;;;;;;4914155;29;20193;-67
2023/08/09 14:06:16;;;;;;;0.80;0.80;;;22.50;76.60;;;;;;4914734;29;20177;-68
2023/08/09 14:08:42;;;;;;;1.13;1.03;;;22.60;76.40;;;;;;4915435;29;20260;-67
2023/08/09 14:11:07;;;;;;;0.90;0.80;;;22.60;76.00;;;;;;4922026;29;20687;-67
2023/08/09 14:13:33;;;;;;;0.90;0.80;;;22.50;76.50;;;;;;4926492;28;20234;-68
2023/08/09 14:15:58;;;;;;;0.97;0.87;;;22.50;75.50;;;;;;4925855;29;20176;-67
2023/08/09 14:18:24;;;;;;;1.10;1.00;;;22.60;76.20;;;;;;4926750;29;20701;-67
2023/08/09 14:20:50;;;;;;;0.93;0.83;;;22.70;76.20;;;;;;4923937;29;20754;-67
2023/08/09 14:23:15;;;;;;;0.90;0.80;;;22.90;76.00;;;;;;4924263;29;20173;-67
2023/08/09 14:25:41;;;;;;;0.90;0.80;;;22.90;75.40;;;;;;4927612;29;20198;-67
2023/08/09 14:28:07;;;;;;;0.93;0.83;;;22.90;76.20;;;;;;4924649;29;20188;-67
2023/08/09 14:30:32;;;;;;;0.90;0.80;;;22.90;75.20;;;;;;4927140;29;20231;-67
2023/08/09 14:32:58;;;;;;;3.33;0.90;;;22.90;75.30;;;;;;4927214;29;20420;-67
2023/08/09 14:35:26;;;;;;;0.90;0.80;;;22.90;76.30;;;;;;4926774;29;20188;-67
2023/08/09 14:37:53;;;;;;;0.80;0.70;;;22.70;76.40;;;;;;4926011;29;20434;-67
2023/08/09 14:40:18;;;;;;;1.47;0.90;;;22.60;77.30;;;;;;4923932;29;20745;-67
2023/08/09 14:42:44;;;;;;;0.80;0.70;;;22.60;77.10;;;;;;4927215;29;20448;-67
2023/08/09 14:45:11;;;;;;;1.10;1.00;;;22.40;76.40;;;;;;4929195;29;20180;-67
2023/08/09 14:47:36;;;;;;;0.90;0.80;;;22.20;77.00;;;;;;4931946;28;20471;-67
2023/08/09 14:50:03;;;;;;;1.30;1.20;;;22.10;77.00;;;;;;4933308;29;20424;-67
2023/08/09 14:52:28;;;;;;;1.93;1.20;;;21.90;77.30;;;;;;4931639;29;20211;-67
2023/08/09 14:54:54;;;;;;;1.10;1.00;;;21.80;77.90;;;;;;4935479;29;20439;-67
2023/08/09 14:57:20;;;;;;;0.70;0.70;;;21.70;77.30;;;;;;4924195;29;20432;-67
2023/08/09 14:59:47;;;;;;;1.53;0.90;;;21.70;78.10;;;;;;4925274;29;20239;-67
2023/08/09 15:02:13;;;;;;;0.97;0.87;;;21.70;77.40;;;;;;4924602;29;20439;-67
2023/08/09 15:04:39;;;;;;;1.33;0.90;;;21.60;77.60;;;;;;4926596;29;20459;-67
2023/08/09 15:07:05;;;;;;;0.90;0.80;;;21.60;77.30;;;;;;4926086;29;20455;-67
2023/08/09 15:09:33;;;;;;;0.90;0.80;;;21.50;77.40;;;;;;4925319;29;20304;-67
2023/08/09 15:11:59;;;;;;;0.70;0.70;;;21.40;77.50;;;;;;4926875;29;20196;-67
2023/08/09 15:14:24;;;;;;;0.70;0.70;;;21.40;77.80;;;;;;4924340;29;20495;-67
2023/08/09 15:16:50;;;;;;;0.90;0.90;;;21.30;77.30;;;;;;4925354;29;20188;-67
2023/08/09 15:19:15;;;;;;;0.77;0.70;;;21.30;78.10;;;;;;4924519;29;20207;-67
2023/08/09 15:21:44;;;;;;;1.00;0.90;;;21.30;78.30;;;;;;4927539;29;20256;-67
2023/08/09 15:24:10;;;;;;;0.97;0.80;;;21.20;77.80;;;;;;4922895;29;20181;-67
2023/08/09 15:26:35;;;;;;;0.90;0.90;;;21.10;78.30;;;;;;4925436;29;20431;-67
2023/08/09 15:29:01;;;;;;;0.90;0.80;;;21.10;79.00;;;;;;4925147;29;20547;-67
2023/08/09 15:31:28;;;;;;;0.90;0.90;;;21.10;79.00;;;;;;4923338;29;20203;-68
2023/08/09 15:33:54;;;;;;;1.10;1.00;;;21.30;79.60;;;;;;4924919;29;20550;-67
2023/08/09 15:36:19;;;;;;;1.10;1.00;;;21.40;78.90;;;;;;4926198;29;21013;-67
2023/08/09 15:38:45;;;;;;;0.80;0.73;;;21.50;78.50;;;;;;4926334;29;20235;-67
2023/08/09 15:41:10;;;;;;;0.80;0.70;;;21.50;78.70;;;;;;4924907;29;20769;-67
2023/08/09 15:43:36;;;;;;;1.57;0.90;;;21.40;78.80;;;;;;4924045;29;20184;-67
2023/08/09 15:46:02;;;;;;;1.00;0.90;;;21.30;78.80;;;;;;4924324;29;20271;-67
2023/08/09 15:48:31;;;;;;;0.83;0.77;;;21.30;78.90;;;;;;4924147;29;20184;-67
2023/08/09 15:50:57;;;;;;;0.77;0.73;;;21.10;79.30;;;;;;4926836;29;20191;-67
2023/08/09 15:53:23;;;;;;;0.90;0.80;;;21.10;79.80;;;;;;4923854;29;20431;-67
2023/08/09 15:55:49;;;;;;;0.90;0.80;;;21.00;80.80;;;;;;4926102;28;20419;-68
2023/08/09 15:58:15;;;;;;;0.80;0.73;;;20.90;80.10;;;;;;4923376;29;20514;-67
2023/08/09 16:00:40;;;;;;;0.90;0.80;;;20.90;82.00;;;;;;4924030;29;20255;-68
2023/08/09 16:03:09;;;;;;;0.90;0.80;;;20.80;81.60;;;;;;4926247;28;20192;-67
2023/08/09 16:05:35;;;;;;;3.90;0.93;;;20.80;80.80;;;;;;4923142;29;20180;-67
2023/08/09 16:08:00;;;;;;;0.80;0.70;;;20.80;81.10;;;;;;4925486;29;20408;-67
2023/08/09 16:10:26;;;;;;;1.00;0.90;;;20.80;81.10;;;;;;4924324;29;20680;-67
2023/08/09 16:12:51;;;;;;;0.90;0.80;;;20.70;81.90;;;;;;4922677;29;20278;-67
2023/08/09 16:17:45;;;;;;;1.00;0.90;;;20.80;84.30;;;;;;4946839;28;20211;-67
2023/08/09 16:20:12;;;;;;;0.90;0.80;;;20.80;85.00;;;;;;4949549;28;20529;-67
2023/08/09 16:22:38;;;;;;;0.70;0.70;;;20.70;84.60;;;;;;4936882;28;20274;-67
2023/08/09 16:25:05;;;;;;;0.90;0.80;;;20.70;84.60;;;;;;4942837;28;20938;-67
2023/08/09 16:27:32;;;;;;;0.60;0.60;;;20.90;86.10;;;;;;4942032;28;20446;-67
2023/08/09 16:29:58;;;;;;;1.00;0.80;;;21.10;86.50;;;;;;4944454;28;20418;-67
2023/08/09 16:32:24;;;;;;;1.10;1.00;;;21.50;86.10;;;;;;4938610;28;20514;-69
2023/08/09 16:34:49;;;;;;;0.80;0.70;;;21.80;83.60;;;;;;4948714;28;20306;-67
2023/08/09 16:37:15;;;;;;;1.00;0.90;;;22.10;82.90;;;;;;4946292;28;20640;-67
2023/08/09 16:39:41;;;;;;;0.80;0.70;;;22.40;82.60;;;;;;4946349;28;20258;-67
2023/08/09 16:42:06;;;;;;;0.83;0.77;;;22.60;80.80;;;;;;4955619;28;20404;-67
2023/08/09 16:44:32;;;;;;;0.83;0.73;;;22.90;80.40;;;;;;4950639;28;20195;-67
2023/08/09 16:46:58;;;;;;;0.90;0.80;;;23.10;79.00;;;;;;4958255;28;20194;-67